Time;durP1;ratioP1;P1;durP2;ratioP2;P2;SDS_P1;SDS_P2;PMS_P1;PMS_P2;Temp;Humidity;BMP_temperature;BMP_pressure;BME280_temperature;BME280_humidity;BME280_pressure;Samples;Min_cycle;Max_cycle;Signal;HPM_P1;HPM_P2
2021/06/20 00:00:21;;;;;;;;;;;;;;;20.18;100.00;100481.16;4991457;28;19933;-73
2021/06/20 00:02:50;;;;;;;;;;;;;;;20.17;100.00;100479.44;4991419;28;19926;-73
2021/06/20 00:05:18;;;;;;;;;;;;;;;20.16;100.00;100491.53;4990725;28;20065;-73
2021/06/20 00:07:46;;;;;;;;;;;;;;;20.13;100.00;100485.56;4990590;28;19969;-73
2021/06/20 00:10:13;;;;;;;;;;;;;;;20.10;100.00;100477.69;4992051;28;20412;-73
2021/06/20 00:12:40;;;;;;;;;;;;;;;20.05;100.00;100484.59;4991499;28;19926;-73
2021/06/20 00:15:09;;;;;;;;;;;;;;;20.03;100.00;100488.59;4992001;28;20385;-73
2021/06/20 00:17:35;;;;;;;;;;;;;;;20.05;100.00;100481.84;4991907;28;20393;-73
2021/06/20 00:20:02;;;;;;;;;;;;;;;20.02;100.00;100475.88;4991707;28;20201;-73
2021/06/20 00:22:28;;;;;;;;;;;;;;;20.04;100.00;100473.78;4991644;28;19926;-73
2021/06/20 00:24:55;;;;;;;;;;;;;;;20.04;100.00;100468.25;4991563;28;19980;-73
2021/06/20 00:27:22;;;;;;;;;;;;;;;20.03;100.00;100459.16;4991688;28;20349;-73
2021/06/20 00:29:48;;;;;;;;;;;;;;;20.01;100.00;100454.88;4995168;28;19965;-73
2021/06/20 00:32:14;;;;;;;;;;;;;;;20.00;100.00;100445.78;4995145;28;20452;-73
2021/06/20 00:34:41;;;;;;;;;;;;;;;20.00;100.00;100445.78;4995535;28;19957;-73
2021/06/20 00:37:07;;;;;;;;;;;;;;;19.97;100.00;100446.16;4995207;28;20024;-73
2021/06/20 00:39:33;;;;;;;;;;;;;;;19.97;100.00;100445.31;4995248;28;19988;-73
2021/06/20 00:42:01;;;;;;;;;;;;;;;19.97;100.00;100434.28;4995196;28;19961;-73
2021/06/20 00:44:27;;;;;;;;;;;;;;;19.99;100.00;100435.81;4995252;28;20028;-73
2021/06/20 00:46:54;;;;;;;;;;;;;;;19.99;100.00;100435.81;4995342;28;19972;-73
2021/06/20 00:49:20;;;;;;;;;;;;;;;19.97;100.00;100426.03;4995148;28;19934;-74
2021/06/20 00:51:46;;;;;;;;;;;;;;;19.94;100.00;100434.69;4994922;28;19968;-74
2021/06/20 00:54:13;;;;;;;;;;;;;;;19.92;100.00;100421.06;4993711;28;19961;-73
2021/06/20 00:56:40;;;;;;;;;;;;;;;19.92;100.00;100417.47;4993651;28;19984;-73
2021/06/20 00:59:07;;;;;;;;;;;;;;;19.87;100.00;100413.41;5010074;28;20424;-73
2021/06/20 01:01:34;;;;;;;;;;;;;;;19.85;100.00;100412.75;4994753;28;20013;-73
2021/06/20 01:04:01;;;;;;;;;;;;;;;19.85;100.00;100412.75;4995245;28;19926;-73
2021/06/20 01:06:28;;;;;;;;;;;;;;;19.81;100.00;100413.34;4994653;28;19969;-73
2021/06/20 01:08:55;;;;;;;;;;;;;;;19.78;100.00;100420.03;4994701;28;19925;-73
2021/06/20 01:11:21;;;;;;;;;;;;;;;19.74;100.00;100419.56;4994702;28;19966;-73
2021/06/20 01:13:48;;;;;;;;;;;;;;;19.71;100.00;100419.13;5009809;28;20593;-73
2021/06/20 01:16:16;;;;;;;;;;;;;;;19.68;100.00;100420.34;4994167;28;20374;-73
2021/06/20 01:18:42;;;;;;;;;;;;;;;19.68;100.00;100420.34;4994685;28;20052;-74
2021/06/20 01:21:09;;;;;;;;;;;;;;;19.70;100.00;100414.66;4994678;28;20016;-74
2021/06/20 01:23:37;;;;;;;;;;;;;;;19.67;100.00;100404.88;4994376;28;19933;-73
2021/06/20 01:26:03;;;;;;;;;;;;;;;19.66;100.00;100403.16;4994308;28;19957;-73
2021/06/20 01:28:39;;;;;;;;;;;;;;;19.68;100.00;100400.22;4994394;28;19985;-73
2021/06/20 01:31:10;;;;;;;;;;;;;;;19.71;100.00;100389.69;4994605;28;20128;-74
2021/06/20 01:33:36;;;;;;;;;;;;;;;19.74;100.00;100380.19;4993915;28;19936;-74
2021/06/20 01:36:03;;;;;;;;;;;;;;;19.70;100.00;100363.19;4994055;28;19984;-73
2021/06/20 01:38:29;;;;;;;;;;;;;;;19.69;100.00;100360.63;4994112;28;19933;-73
2021/06/20 01:40:57;;;;;;;;;;;;;;;19.70;100.00;100354.09;4993122;28;19926;-73
2021/06/20 01:43:23;;;;;;;;;;;;;;;19.70;100.00;100356.84;4993990;28;20374;-74
2021/06/20 01:45:49;;;;;;;;;;;;;;;19.66;100.00;100350.84;4993767;28;19968;-74
2021/06/20 01:48:16;;;;;;;;;;;;;;;19.67;100.00;100348.94;4993952;28;19926;-74
2021/06/20 01:50:42;;;;;;;;;;;;;;;19.64;100.00;100335.56;4994230;28;19984;-74
2021/06/20 01:53:10;;;;;;;;;;;;;;;19.63;100.00;100333.84;4993395;28;19965;-74
2021/06/20 01:55:37;;;;;;;;;;;;;;;19.64;100.00;100327.31;4993714;28;19926;-74
2021/06/20 01:58:06;;;;;;;;;;;;;;;19.61;100.00;100319.44;4993839;28;19965;-74
2021/06/20 02:00:33;;;;;;;;;;;;;;;19.61;100.00;100313.94;4993828;28;19937;-74
2021/06/20 02:03:05;;;;;;;;;;;;;;;19.58;100.00;100312.44;4993526;28;19957;-74
2021/06/20 02:05:31;;;;;;;;;;;;;;;19.57;100.00;100317.09;4993610;28;19965;-74
2021/06/20 02:07:57;;;;;;;;;;;;;;;19.54;100.00;100319.38;4993774;28;19961;-73
2021/06/20 02:10:24;;;;;;;;;;;;;;;19.52;100.00;100318.69;4993497;28;19969;-74
2021/06/20 02:12:52;;;;;;;;;;;;;;;19.49;100.00;100308.94;4993210;28;19973;-74
2021/06/20 02:15:19;;;;;;;;;;;;;;;19.49;100.00;100314.44;4993336;28;19936;-73
2021/06/20 02:17:47;;;;;;;;;;;;;;;19.48;100.00;100315.50;4993513;28;19933;-73
2021/06/20 02:20:14;;;;;;;;;;;;;;;19.49;100.00;100330.09;4993592;28;19936;-73
2021/06/20 02:22:41;;;;;;;;;;;;;;;19.46;100.00;100339.59;4993221;28;19957;-73
2021/06/20 02:25:08;;;;;;;;;;;;;;;19.45;100.00;100329.63;4993331;28;19970;-74
2021/06/20 02:27:34;;;;;;;;;;;;;;;19.46;100.00;100339.59;4993158;28;19957;-74
2021/06/20 02:30:01;;;;;;;;;;;;;;;19.44;100.00;100340.84;4991900;28;19968;-74
2021/06/20 02:32:28;;;;;;;;;;;;;;;19.45;100.00;100345.31;4993022;28;20517;-74
2021/06/20 02:34:55;;;;;;;;;;;;;;;19.42;100.00;100352.03;4993304;28;19964;-73
2021/06/20 02:37:22;;;;;;;;;;;;;;;19.43;100.00;100359.25;5008411;28;20416;-73
2021/06/20 02:39:48;;;;;;;;;;;;;;;19.41;100.00;100350.31;4993000;28;19926;-73
2021/06/20 02:42:15;;;;;;;;;;;;;;;19.42;100.00;100368.56;4993002;28;19929;-73
2021/06/20 02:44:42;;;;;;;;;;;;;;;19.42;100.00;100371.31;4992945;28;19926;-73
2021/06/20 02:47:09;;;;;;;;;;;;;;;19.44;100.00;100382.13;4992742;28;19976;-73
2021/06/20 02:49:37;;;;;;;;;;;;;;;19.46;100.00;100389.13;4992993;28;19965;-73
2021/06/20 02:52:04;;;;;;;;;;;;;;;19.42;100.00;100387.81;4992451;28;20280;-73
2021/06/20 02:54:30;;;;;;;;;;;;;;;19.42;100.00;100390.56;4992790;28;19931;-73
2021/06/20 02:56:57;;;;;;;;;;;;;;;19.44;100.00;100394.00;5007821;28;20302;-73
2021/06/20 02:59:23;;;;;;;;;;;;;;;19.44;100.00;100390.38;4992905;28;20028;-73
2021/06/20 03:01:49;;;;;;;;;;;;;;;19.46;100.00;100396.56;4992817;28;19964;-73
2021/06/20 03:04:16;;;;;;;;;;;;;;;19.51;100.00;100399.59;4992597;28;19957;-73
2021/06/20 03:06:43;;;;;;;;;;;;;;;19.51;100.00;100392.19;4992194;28;20313;-73
2021/06/20 03:09:10;;;;;;;;;;;;;;;19.53;100.00;100390.06;4992586;28;20024;-73
2021/06/20 03:11:41;;;;;;;;;;;;;;;19.51;100.00;100375.66;4992559;28;20246;-73
2021/06/20 03:14:08;;;;;;;;;;;;;;;19.51;100.00;100381.16;4992384;28;19988;-73
2021/06/20 03:16:34;;;;;;;;;;;;;;;19.54;100.00;100382.69;4992161;28;19957;-73
2021/06/20 03:19:00;;;;;;;;;;;;;;;19.53;100.00;100361.69;4992583;28;20428;-73
2021/06/20 03:21:27;;;;;;;;;;;;;;;19.54;100.00;100361.50;4992296;28;19930;-73
2021/06/20 03:23:54;;;;;;;;;;;;;;;19.54;100.00;100350.50;4991960;28;20361;-73
2021/06/20 03:26:20;;;;;;;;;;;;;;;19.51;100.00;100337.13;4992419;28;19972;-73
2021/06/20 03:28:47;;;;;;;;;;;;;;;19.50;100.00;100343.66;4992211;28;19926;-73
2021/06/20 03:31:13;;;;;;;;;;;;;;;19.48;100.00;100342.16;4992231;28;19926;-73
2021/06/20 03:33:39;;;;;;;;;;;;;;;19.51;100.00;100342.63;4991932;28;19961;-73
2021/06/20 03:36:06;;;;;;;;;;;;;;;19.51;100.00;100341.78;4992597;28;20009;-73
2021/06/20 03:38:32;;;;;;;;;;;;;;;19.54;100.00;100338.63;4992024;28;19926;-73
2021/06/20 03:41:00;;;;;;;;;;;;;;;19.58;100.00;100338.03;4992159;28;19976;-73
2021/06/20 03:43:26;;;;;;;;;;;;;;;19.67;100.00;100348.94;4991542;28;20004;-73
2021/06/20 03:45:52;;;;;;;;;;;;;;;19.70;100.00;100349.41;4992069;28;20016;-73
2021/06/20 03:48:18;;;;;;;;;;;;;;;19.76;100.00;100344.19;4992137;28;19930;-73
2021/06/20 03:50:45;;;;;;;;;;;;;;;19.81;100.00;100345.31;5007137;28;20012;-74
2021/06/20 03:53:12;;;;;;;;;;;;;;;19.91;100.00;100347.78;4991982;28;20389;-74
2021/06/20 03:55:38;;;;;;;;;;;;;;;20.03;100.00;100331.56;4990779;28;19930;-75
2021/06/20 03:58:06;;;;;;;;;;;;;;;20.14;100.00;100333.81;4991795;28;19969;-74
2021/06/20 04:00:33;;;;;;;;;;;;;;;20.21;100.00;100326.44;4991534;28;19932;-72
2021/06/20 04:02:59;;;;;;;;;;;;;;;20.32;100.00;100314.03;4991655;28;19972;-72
2021/06/20 04:05:25;;;;;;;;;;;;;;;20.40;100.00;100300.13;4998005;28;20356;-73
2021/06/20 04:07:52;;;;;;;;;;;;;;;20.47;100.00;100291.94;4994773;28;20008;-72
2021/06/20 04:10:18;;;;;;;;;;;;;;;20.55;100.00;100277.97;4996217;28;19973;-73
2021/06/20 04:12:44;;;;;;;;;;;;;;;20.63;100.00;100278.88;4995519;28;20389;-73
2021/06/20 04:15:12;;;;;;;;;;;;;;;20.72;100.00;100262.00;5006186;28;19925;-73
2021/06/20 04:17:39;;;;;;;;;;;;;;;20.78;100.00;100254.81;5015652;28;20120;-73
2021/06/20 04:20:07;;;;;;;;;;;;;;;20.85;100.00;100250.19;5000473;28;20024;-73
2021/06/20 04:22:33;;;;;;;;;;;;;;;20.97;100.00;100263.41;4995529;28;19926;-73
2021/06/20 04:24:59;;;;;;;;;;;;;;;21.10;100.00;100248.81;5007907;28;19972;-73
2021/06/20 04:27:26;;;;;;;;;;;;;;;21.28;100.00;100232.53;5014561;28;19925;-73
2021/06/20 04:29:52;;;;;;;;;;;;;;;21.47;100.00;100233.69;5003902;28;20413;-73
2021/06/20 04:32:20;;;;;;;;;;;;;;;21.69;100.00;100226.09;4994986;28;19980;-74
2021/06/20 04:34:46;;;;;;;;;;;;;;;21.85;100.00;100213.78;5001020;28;20381;-73
2021/06/20 04:37:12;;;;;;;;;;;;;;;22.03;100.00;100221.47;4996360;28;19972;-73
2021/06/20 04:39:38;;;;;;;;;;;;;;;22.15;100.00;100226.34;4995138;28;19976;-73
2021/06/20 04:42:06;;;;;;;;;;;;;;;22.31;100.00;100225.03;5015010;28;19980;-74
2021/06/20 04:44:45;;;;;;;;;;;;;;;22.46;100.00;100219.31;5014715;28;19925;-73
2021/06/20 04:47:12;;;;;;;;;;;;;;;22.60;100.00;100217.38;4985929;28;20008;-74
2021/06/20 04:49:41;;;;;;;;;;;;;;;22.74;100.00;100219.91;5014484;28;19926;-74
2021/06/20 04:52:07;;;;;;;;;;;;;;;22.89;100.00;100222.41;5014450;28;19980;-74
2021/06/20 04:54:35;;;;;;;;;;;;;;;23.04;100.00;100213.81;4994470;28;20432;-74
2021/06/20 04:57:03;;;;;;;;;;;;;;;23.21;100.00;100213.34;4994650;28;19930;-74
2021/06/20 04:59:30;;;;;;;;;;;;;;;23.36;100.00;100204.75;5012190;28;20848;-74
2021/06/20 05:01:56;;;;;;;;;;;;;;;23.43;100.00;100190.88;5014341;28;19980;-74
2021/06/20 05:04:22;;;;;;;;;;;;;;;23.42;100.00;100178.94;4998691;28;19926;-74
2021/06/20 05:06:51;;;;;;;;;;;;;;;23.47;100.00;100178.28;5013714;28;19934;-74
2021/06/20 05:09:17;;;;;;;;;;;;;;;23.62;100.00;100176.03;4997031;28;20294;-73
2021/06/20 05:11:44;;;;;;;;;;;;;;;23.67;100.00;100172.59;4993292;28;19958;-73
2021/06/20 05:14:10;;;;;;;;;;;;;;;23.70;100.00;100167.47;5008246;28;20447;-74
2021/06/20 05:16:36;;;;;;;;;;;;;;;23.84;100.00;100172.91;5014181;28;19972;-73
2021/06/20 05:19:02;;;;;;;;;;;;;;;23.99;100.00;100181.75;5003233;28;20011;-73
2021/06/20 05:21:33;;;;;;;;;;;;;;;24.17;100.00;100192.03;5002624;28;20004;-73
2021/06/20 05:24:01;;;;;;;;;;;;;;;24.36;100.00;100186.53;4994583;28;19980;-73
2021/06/20 05:26:27;;;;;;;;;;;;;;;24.50;100.00;100185.28;4994599;28;19972;-73
2021/06/20 05:28:54;;;;;;;;;;;;;;;24.52;100.00;100185.91;5000274;28;19964;-73
2021/06/20 05:31:20;;;;;;;;;;;;;;;24.60;100.00;100186.69;5013775;28;19991;-73
2021/06/20 05:33:46;;;;;;;;;;;;;;;24.62;100.00;100176.22;5008551;28;19980;-73
2021/06/20 05:36:13;;;;;;;;;;;;;;;24.76;100.00;100186.13;5001911;28;19979;-73
2021/06/20 05:38:39;;;;;;;;;;;;;;;25.01;100.00;100182.38;5010367;28;19925;-73
2021/06/20 05:41:07;;;;;;;;;;;;;;;25.26;100.00;100198.09;4994113;28;20012;-74
2021/06/20 05:43:33;;;;;;;;;;;;;;;25.14;100.00;100201.63;4996531;28;19941;-74
2021/06/20 05:45:59;;;;;;;;;;;;;;;24.83;100.00;100206.31;5012832;28;20444;-73
2021/06/20 05:48:26;;;;;;;;;;;;;;;24.88;100.00;100209.22;5002049;28;19980;-73
2021/06/20 05:50:52;;;;;;;;;;;;;;;25.04;100.00;100198.56;4984243;28;19925;-72
2021/06/20 05:53:18;;;;;;;;;;;;;;;25.17;100.00;100203.94;5009604;28;20035;-75
2021/06/20 05:55:44;;;;;;;;;;;;;;;25.50;100.00;100196.28;4997715;28;19976;-75
2021/06/20 05:58:13;;;;;;;;;;;;;;;25.55;100.00;100191.69;5009934;28;19925;-76
2021/06/20 06:00:39;;;;;;;;;;;;;;;25.61;100.00;100198.22;4995885;28;19925;-75
2021/06/20 06:03:05;;;;;;;;;;;;;;;25.46;100.00;100200.59;4993649;28;19980;-75
2021/06/20 06:05:32;;;;;;;;;;;;;;;25.39;100.00;100207.09;5013209;28;19957;-76
2021/06/20 06:07:58;;;;;;;;;;;;;;;25.76;100.00;100205.28;5012343;28;19926;-75
2021/06/20 06:10:25;;;;;;;;;;;;;;;26.04;100.00;100187.94;4994481;28;19954;-76
2021/06/20 06:12:51;;;;;;;;;;;;;;;26.31;100.00;100187.47;5004266;28;19957;-75
2021/06/20 06:15:19;;;;;;;;;;;;;;;26.40;100.00;100195.22;5002881;28;20346;-75
2021/06/20 06:17:46;;;;;;;;;;;;;;;26.59;100.00;100197.00;4993900;28;19926;-76
2021/06/20 06:20:13;;;;;;;;;;;;;;;26.21;100.00;100202.00;5001380;28;19953;-75
2021/06/20 06:22:39;;;;;;;;;;;;;;;26.62;100.00;100202.09;4993120;28;19965;-76
2021/06/20 06:25:06;;;;;;;;;;;;;;;26.51;100.00;100192.66;4993204;28;19926;-75
2021/06/20 06:27:32;;;;;;;;;;;;;;;26.73;100.00;100190.97;4992403;28;19936;-75
2021/06/20 06:29:59;;;;;;;;;;;;;;;27.10;100.00;100187.00;4999712;28;19925;-74
2021/06/20 06:32:27;;;;;;;;;;;;;;;27.44;100.00;100195.50;5011067;28;19968;-75
2021/06/20 06:34:53;;;;;;;;;;;;;;;27.63;100.00;100206.44;5010634;28;19975;-75
2021/06/20 06:37:19;;;;;;;;;;;;;;;27.61;100.00;100203.06;5012641;28;19925;-74
2021/06/20 06:39:45;;;;;;;;;;;;;;;27.60;100.00;100209.72;5007218;28;19979;-75
2021/06/20 06:42:12;;;;;;;;;;;;;;;27.58;100.00;100195.19;4992562;28;19929;-73
2021/06/20 06:44:38;;;;;;;;;;;;;;;27.64;100.00;100194.19;5001505;28;19948;-74
2021/06/20 06:47:05;;;;;;;;;;;;;;;27.89;100.00;100186.25;5012435;28;19925;-74
2021/06/20 06:49:33;;;;;;;;;;;;;;;28.06;100.00;100196.59;5012497;28;19976;-74
2021/06/20 06:52:00;;;;;;;;;;;;;;;28.30;100.00;100200.06;5012309;28;19964;-74
2021/06/20 06:54:26;;;;;;;;;;;;;;;27.91;100.00;100191.56;5011850;28;19964;-74
2021/06/20 06:56:52;;;;;;;;;;;;;;;28.72;100.00;100195.94;5012431;28;19929;-74
2021/06/20 06:59:18;;;;;;;;;;;;;;;29.26;100.00;100197.19;5011730;28;19965;-74
2021/06/20 07:01:45;;;;;;;;;;;;;;;29.31;100.00;100186.06;5012249;28;20020;-74
2021/06/20 07:04:11;;;;;;;;;;;;;;;29.26;100.00;100186.84;5011141;28;19971;-74
2021/06/20 07:06:39;;;;;;;;;;;;;;;29.12;100.00;100189.19;5011745;28;19979;-74
2021/06/20 07:09:05;;;;;;;;;;;;;;;29.05;100.00;100189.38;5012030;28;20389;-73
2021/06/20 07:11:32;;;;;;;;;;;;;;;29.10;100.00;100184.97;5011719;28;19925;-74
2021/06/20 07:13:58;;;;;;;;;;;;;;;29.09;100.00;100191.66;5012108;28;19964;-74
2021/06/20 07:16:24;;;;;;;;;;;;;;;29.06;100.00;100196.66;5010640;28;19980;-73
2021/06/20 07:18:51;;;;;;;;;;;;;;;29.09;100.00;100194.44;4991217;28;19957;-73
2021/06/20 07:21:17;;;;;;;;;;;;;;;28.99;100.00;100192.38;4992449;28;19973;-74
2021/06/20 07:23:45;;;;;;;;;;;;;;;29.01;100.00;100187.38;4992026;28;20393;-72
2021/06/20 07:26:11;;;;;;;;;;;;;;;28.92;100.00;100177.78;4992269;28;19926;-73
2021/06/20 07:28:38;;;;;;;;;;;;;;;29.10;100.00;100174.63;4992132;28;20352;-73
2021/06/20 07:31:04;;;;;;;;;;;;;;;29.44;100.00;100173.63;4992499;28;19926;-73
2021/06/20 07:33:31;;;;;;;;;;;;;;;29.74;100.00;100175.88;4991955;28;20007;-73
2021/06/20 07:35:58;;;;;;;;;;;;;;;30.04;100.00;100172.53;4991619;28;19972;-73
2021/06/20 07:38:24;;;;;;;;;;;;;;;29.87;100.00;100167.06;4991214;28;19926;-74
2021/06/20 07:40:52;;;;;;;;;;;;;;;30.10;100.00;100153.81;4991932;28;19965;-73
2021/06/20 07:43:21;;;;;;;;;;;;;;;30.18;100.00;100160.88;4991914;28;19925;-73
2021/06/20 07:45:48;;;;;;;;;;;;;;;30.51;100.00;100159.72;4992096;28;19932;-73
2021/06/20 07:48:14;;;;;;;;;;;;;;;30.72;100.00;100168.22;4991978;28;19926;-74
2021/06/20 07:50:40;;;;;;;;;;;;;;;30.98;100.00;100157.13;4992034;28;19976;-73
2021/06/20 07:53:07;;;;;;;;;;;;;;;31.19;100.00;100158.91;4991373;28;19976;-74
2021/06/20 07:55:33;;;;;;;;;;;;;;;31.21;100.00;100150.22;4991559;28;19926;-74
2021/06/20 07:58:01;;;;;;;;;;;;;;;31.39;100.00;100141.28;4992048;28;19972;-73
2021/06/20 08:00:27;;;;;;;;;;;;;;;31.22;100.00;100138.72;4991739;28;20360;-73
2021/06/20 08:02:53;;;;;;;;;;;;;;;31.31;100.00;100138.16;4990486;28;19957;-74
2021/06/20 08:05:19;;;;;;;;;;;;;;;31.63;100.00;100140.78;4991487;28;19925;-74
2021/06/20 08:07:46;;;;;;;;;;;;;;;31.75;100.00;100126.47;4991966;28;19926;-73
2021/06/20 08:10:12;;;;;;;;;;;;;;;31.47;100.00;100134.28;4991675;28;19964;-73
2021/06/20 08:12:38;;;;;;;;;;;;;;;31.66;100.00;100133.78;4991366;28;19973;-73
2021/06/20 08:15:07;;;;;;;;;;;;;;;31.43;100.00;100130.34;4991803;28;20021;-73
2021/06/20 08:17:33;;;;;;;;;;;;;;;31.20;100.00;100121.34;4991357;28;19988;-73
2021/06/20 08:20:00;;;;;;;;;;;;;;;31.29;100.00;100118.00;4991905;28;19961;-73
2021/06/20 08:22:26;;;;;;;;;;;;;;;31.44;100.00;100111.56;4991265;28;19926;-73
2021/06/20 08:24:52;;;;;;;;;;;;;;;31.35;99.99;100116.91;4991749;28;19930;-73
2021/06/20 08:27:19;;;;;;;;;;;;;;;31.43;97.99;100107.94;4991591;28;19968;-73
2021/06/20 08:29:45;;;;;;;;;;;;;;;31.57;95.24;100105.41;4991197;28;19965;-73
2021/06/20 08:32:13;;;;;;;;;;;;;;;31.71;95.90;100102.94;4991522;28;20380;-73
2021/06/20 08:34:39;;;;;;;;;;;;;;;32.00;94.10;100100.38;4991043;28;20397;-74
2021/06/20 08:37:05;;;;;;;;;;;;;;;32.13;86.71;100107.34;4991568;28;19968;-73
2021/06/20 08:39:32;;;;;;;;;;;;;;;32.39;90.83;100104.50;4991423;28;20670;-73
2021/06/20 08:41:58;;;;;;;;;;;;;;;32.31;85.77;100094.72;4991572;28;19961;-72
2021/06/20 08:44:25;;;;;;;;;;;;;;;32.18;79.66;100089.69;4991334;28;19969;-73
2021/06/20 08:46:52;;;;;;;;;;;;;;;32.62;81.20;100088.97;4990865;28;20348;-73
2021/06/20 08:49:19;;;;;;;;;;;;;;;32.22;76.83;100094.44;4992632;28;19961;-73
2021/06/20 08:51:47;;;;;;;;;;;;;;;32.28;78.89;100100.03;4994894;28;19976;-73
2021/06/20 08:54:13;;;;;;;;;;;;;;;32.53;79.59;100101.94;4994838;28;19957;-73
2021/06/20 08:56:40;;;;;;;;;;;;;;;32.46;73.17;100095.78;4994913;28;19957;-73
2021/06/20 08:59:06;;;;;;;;;;;;;;;31.93;79.80;100097.00;4994913;28;19972;-73
2021/06/20 09:01:33;;;;;;;;;;;;;;;32.13;78.76;100098.91;4994984;28;19929;-73
2021/06/20 09:03:59;;;;;;;;;;;;;;;32.32;79.42;100096.38;4994496;28;19932;-72
2021/06/20 09:06:27;;;;;;;;;;;;;;;32.26;78.11;100085.44;4994603;28;20366;-72
2021/06/20 09:08:54;;;;;;;;;;;;;;;31.96;78.95;100078.75;4994752;28;19957;-72
2021/06/20 09:11:24;;;;;;;;;;;;;;;31.76;80.83;100074.84;4994527;28;19957;-73
2021/06/20 09:13:51;;;;;;;;;;;;;;;31.81;81.80;100074.84;4993417;28;19983;-73
2021/06/20 09:16:20;;;;;;;;;;;;;;;31.73;82.70;100080.19;4994524;28;19926;-73
2021/06/20 09:18:50;;;;;;;;;;;;;;;31.79;82.42;100077.09;4994707;28;19926;-72
2021/06/20 09:21:17;;;;;;;;;;;;;;;32.32;78.04;100078.69;5009277;28;19925;-72
2021/06/20 09:23:44;;;;;;;;;;;;;;;32.94;74.65;100089.66;4994253;28;19926;-72
2021/06/20 09:26:12;;;;;;;;;;;;;;;33.31;71.05;100077.09;4994329;28;19961;-73
2021/06/20 09:28:38;;;;;;;;;;;;;;;33.43;71.03;100080.38;4994342;28;19933;-73
2021/06/20 09:31:06;;;;;;;;;;;;;;;33.91;71.75;100079.69;4994525;28;20389;-73
2021/06/20 09:33:33;;;;;;;;;;;;;;;34.02;66.29;100074.78;4993928;28;19984;-72
2021/06/20 09:35:59;;;;;;;;;;;;;;;33.75;64.55;100070.53;4994247;28;20394;-73
2021/06/20 09:38:26;;;;;;;;;;;;;;;33.17;64.19;100072.09;4994132;28;19976;-73
2021/06/20 09:41:01;;;;;;;;;;;;;;;33.46;67.00;100064.88;4994116;28;20376;-72
2021/06/20 09:43:27;;;;;;;;;;;;;;;33.65;61.51;100050.94;4993938;28;19926;-72
2021/06/20 09:45:53;;;;;;;;;;;;;;;33.37;63.01;100059.06;4994085;28;19926;-73
2021/06/20 09:48:24;;;;;;;;;;;;;;;33.42;63.98;100056.22;4994065;28;19925;-73
2021/06/20 09:50:51;;;;;;;;;;;;;;;33.27;60.78;100059.13;4993888;28;19926;-72
2021/06/20 09:53:19;;;;;;;;;;;;;;;33.24;60.35;100051.25;4994256;28;19926;-72
2021/06/20 09:55:46;;;;;;;;;;;;;;;34.09;61.02;100052.78;5011549;28;20412;-72
2021/06/20 09:58:20;;;;;;;;;;;;;;;34.40;59.40;100055.25;4994664;28;19957;-72
2021/06/20 10:00:46;;;;;;;;;;;;;;;34.81;56.96;100063.16;4998929;28;20385;-74
2021/06/20 10:03:22;;;;;;;;;;;;;;;35.12;54.97;100057.09;4992562;28;20021;-74
2021/06/20 10:05:51;;;;;;;;;;;;;;;35.39;52.49;100055.56;4996640;28;19926;-73
2021/06/20 10:08:17;;;;;;;;;;;;;;;35.89;49.49;100054.97;4993504;28;20027;-73
2021/06/20 10:10:43;;;;;;;;;;;;;;;35.69;49.94;100056.16;5003237;28;19926;-72
2021/06/20 10:13:10;;;;;;;;;;;;;;;35.73;47.45;100062.84;5011447;28;19979;-73
2021/06/20 10:15:38;;;;;;;;;;;;;;;35.66;50.04;100062.44;5003956;28;20035;-72
2021/06/20 10:18:07;;;;;;;;;;;;;;;36.10;48.10;100051.78;4996334;28;20278;-73
2021/06/20 10:20:35;;;;;;;;;;;;;;;36.55;47.12;100051.16;4990782;28;19968;-72
2021/06/20 10:23:02;;;;;;;;;;;;;;;36.18;46.62;100053.88;4993309;28;19930;-74
2021/06/20 10:25:29;;;;;;;;;;;;;;;36.25;43.36;100059.94;4993393;28;20021;-73
2021/06/20 10:28:00;;;;;;;;;;;;;;;36.33;42.88;100061.22;4992979;28;19925;-73
2021/06/20 10:30:26;;;;;;;;;;;;;;;36.88;44.88;100070.81;4993448;28;19932;-73
2021/06/20 10:33:03;;;;;;;;;;;;;;;36.51;42.74;100084.88;4993201;28;20377;-73
2021/06/20 10:35:29;;;;;;;;;;;;;;;36.65;42.40;100076.38;4992686;28;19925;-73
2021/06/20 10:37:55;;;;;;;;;;;;;;;36.57;41.72;100091.25;4993054;28;19926;-73
2021/06/20 10:40:23;;;;;;;;;;;;;;;35.76;42.11;100084.84;4993102;28;19991;-73
2021/06/20 10:42:50;;;;;;;;;;;;;;;35.91;44.18;100068.81;4992889;28;20396;-73
2021/06/20 10:45:27;;;;;;;;;;;;;;;36.32;42.32;100073.63;4992768;28;19973;-73
2021/06/20 10:47:55;;;;;;;;;;;;;;;36.11;41.83;100076.88;4992830;28;19968;-73
2021/06/20 10:50:21;;;;;;;;;;;;;;;36.39;42.59;100068.44;4992784;28;19925;-72
2021/06/20 10:52:55;;;;;;;;;;;;;;;36.63;42.49;100070.22;4992699;28;20017;-72
2021/06/20 10:55:22;;;;;;;;;;;;;;;36.68;43.05;100076.59;4992735;28;20381;-72
2021/06/20 10:57:50;;;;;;;;;;;;;;;36.82;42.42;100068.09;4992524;28;19966;-73
2021/06/20 11:00:26;;;;;;;;;;;;;;;37.29;41.90;100078.34;4992811;28;19926;-74
2021/06/20 11:02:54;;;;;;;;;;;;;;;37.34;41.50;100066.94;4992478;28;19957;-74
2021/06/20 11:05:23;;;;;;;;;;;;;;;36.89;40.58;100059.19;4992594;28;20024;-75
2021/06/20 11:07:49;;;;;;;;;;;;;;;36.19;41.79;100073.31;4992627;28;20333;-75
2021/06/20 11:10:21;;;;;;;;;;;;;;;36.05;41.26;100058.34;4992380;28;19926;-75
2021/06/20 11:12:53;;;;;;;;;;;;;;;36.23;41.84;100072.69;4992357;28;20011;-74
2021/06/20 11:15:24;;;;;;;;;;;;;;;36.49;42.00;100078.69;4992474;28;19969;-75
2021/06/20 11:17:50;;;;;;;;;;;;;;;36.66;40.95;100070.41;4992582;28;19980;-75
2021/06/20 11:20:17;;;;;;;;;;;;;;;36.97;40.46;100071.72;4992400;28;19980;-75
2021/06/20 11:22:44;;;;;;;;;;;;;;;37.39;41.21;100083.78;4991795;28;19934;-75
2021/06/20 11:25:11;;;;;;;;;;;;;;;37.29;40.78;100079.16;4992240;28;19971;-69
2021/06/20 11:27:37;;;;;;;;;;;;;;;37.31;39.81;100078.91;4990859;28;19929;-69
2021/06/20 11:30:04;;;;;;;;;;;;;;;37.18;40.71;100072.09;4992627;28;20016;-70
2021/06/20 11:32:31;;;;;;;;;;;;;;;37.39;40.20;100069.63;4991996;28;20471;-70
2021/06/20 11:35:01;;;;;;;;;;;;;;;37.32;41.08;100061.59;4992045;28;19961;-69
2021/06/20 11:37:28;;;;;;;;;;;;;;;37.30;40.20;100055.41;4991884;28;20016;-70
2021/06/20 11:39:57;;;;;;;;;;;;;;;37.46;40.28;100061.50;4992274;28;20345;-70
2021/06/20 11:42:24;;;;;;;;;;;;;;;37.14;39.14;100063.41;4992149;28;20393;-70
2021/06/20 11:44:57;;;;;;;;;;;;;;;37.27;40.49;100056.03;4991824;28;19933;-69
2021/06/20 11:47:30;;;;;;;;;;;;;;;37.02;41.29;100058.31;4991666;28;20333;-69
2021/06/20 11:49:56;;;;;;;;;;;;;;;37.76;39.66;100049.72;4991883;28;19930;-70
2021/06/20 11:52:23;;;;;;;;;;;;;;;37.84;38.79;100044.16;4991967;28;19930;-69
2021/06/20 11:55:04;;;;;;;;;;;;;;;38.05;38.28;100039.91;4997490;28;20377;-70
2021/06/20 11:57:32;;;;;;;;;;;;;;;38.31;36.78;100032.38;4994549;28;19926;-69
2021/06/20 12:00:07;;;;;;;;;;;;;;;38.64;39.15;100040.44;4996968;28;19925;-67
2021/06/20 12:02:39;;;;;;;;;;;;;;;38.39;38.72;100042.06;4993592;28;19965;-67
2021/06/20 12:05:05;;;;;;;;;;;;;;;38.54;37.24;100040.75;5001464;28;19965;-67
2021/06/20 12:07:32;;;;;;;;;;;;;;;39.19;37.39;100049.53;4997836;28;19930;-67
2021/06/20 12:09:59;;;;;;;;;;;;;;;39.12;34.80;100052.84;4999405;28;19973;-67
2021/06/20 12:12:25;;;;;;;;;;;;;;;38.70;33.48;100046.78;4995262;28;20015;-66
2021/06/20 12:14:59;;;;;;;;;;;;;;;38.55;33.89;100045.25;5008491;28;19929;-67
2021/06/20 12:17:26;;;;;;;;;;;;;;;38.62;33.44;100039.94;4976924;28;20420;-67
2021/06/20 12:19:53;;;;;;;;;;;;;;;38.71;33.45;100041.97;4987447;28;19936;-66
2021/06/20 12:22:20;;;;;;;;;;;;;;;37.84;34.37;100051.78;4991079;28;20029;-67
2021/06/20 12:24:48;;;;;;;;;;;;;;;36.66;36.88;100042.13;4992217;28;19965;-67
2021/06/20 12:27:16;;;;;;;;;;;;;;;37.20;36.99;100044.31;4995103;28;19980;-67
2021/06/20 12:29:42;;;;;;;;;;;;;;;36.76;37.26;100029.78;4995493;28;19929;-66